Time;durP1;ratioP1;P1;durP2;ratioP2;P2;SDS_P1;SDS_P2;PMS_P1;PMS_P2;Temp;Humidity;BMP_temperature;BMP_pressure;BME280_temperature;BME280_humidity;BME280_pressure;Samples;Min_cycle;Max_cycle;Signal;HPM_P1;HPM_P2
2022/05/22 00:00:08;;;;;;;10.82;3.60;;;9.70;99.90;;;;;;5066021;28;20052;-68
2022/05/22 00:02:34;;;;;;;10.80;4.30;;;9.70;99.90;;;;;;5068603;28;20091;-68
2022/05/22 00:05:00;;;;;;;9.20;3.97;;;9.70;99.90;;;;;;5065883;28;20106;-68
2022/05/22 00:07:26;;;;;;;10.45;3.97;;;9.70;99.90;;;;;;5066753;28;20040;-68
2022/05/22 00:09:52;;;;;;;13.38;5.45;;;9.70;99.90;;;;;;5067939;28;20139;-68
2022/05/22 00:12:18;;;;;;;13.90;4.60;;;9.60;99.90;;;;;;5064877;28;20575;-67
2022/05/22 00:14:43;;;;;;;8.50;3.92;;;9.60;99.90;;;;;;5069495;28;20036;-67
2022/05/22 00:17:10;;;;;;;9.20;3.53;;;9.60;99.90;;;;;;5065892;28;20636;-67
2022/05/22 00:19:37;;;;;;;10.65;3.53;;;9.50;99.90;;;;;;5067257;28;20079;-67
2022/05/22 00:22:03;;;;;;;10.02;4.40;;;9.50;99.90;;;;;;5062501;28;20044;-67
2022/05/22 00:24:30;;;;;;;9.20;4.28;;;9.50;99.90;;;;;;5066660;28;20491;-67
2022/05/22 00:26:56;;;;;;;8.93;3.92;;;9.40;99.90;;;;;;5062532;28;20056;-67
2022/05/22 00:29:22;;;;;;;9.52;3.60;;;9.40;99.90;;;;;;5062474;28;20047;-67
2022/05/22 00:31:48;;;;;;;10.32;4.57;;;9.40;99.90;;;;;;5068744;28;20380;-67
2022/05/22 00:34:14;;;;;;;9.82;4.20;;;9.40;99.90;;;;;;5066418;28;20043;-67
2022/05/22 00:36:41;;;;;;;13.00;4.40;;;9.40;99.90;;;;;;5064892;28;20041;-67
2022/05/22 00:39:07;;;;;;;10.07;4.85;;;9.40;99.90;;;;;;5068200;28;20507;-67
2022/05/22 00:41:34;;;;;;;8.93;4.65;;;9.30;99.90;;;;;;5067564;28;20119;-67
2022/05/22 00:44:01;;;;;;;7.15;4.20;;;9.30;99.90;;;;;;5068424;28;20041;-67
2022/05/22 00:46:27;;;;;;;10.68;4.45;;;9.20;99.90;;;;;;5067448;28;20046;-67
2022/05/22 00:49:04;;;;;;;8.88;3.95;;;9.30;99.90;;;;;;5061783;28;20059;-67
2022/05/22 00:51:49;;;;;;;11.85;4.55;;;9.20;99.90;;;;;;5067974;28;20179;-67
2022/05/22 00:54:26;;;;;;;8.45;4.43;;;9.20;99.90;;;;;;5061698;28;20055;-67
2022/05/22 00:57:04;;;;;;;10.38;4.60;;;9.20;99.90;;;;;;5066713;28;20348;-67
2022/05/22 00:59:52;;;;;;;8.77;4.07;;;9.20;99.90;;;;;;5068577;28;20047;-67
2022/05/22 01:02:18;;;;;;;8.05;4.57;;;9.20;99.90;;;;;;5071805;28;20492;-67
2022/05/22 01:04:45;;;;;;;13.77;4.10;;;9.20;99.90;;;;;;5068945;28;20044;-67
2022/05/22 01:07:12;;;;;;;8.90;4.00;;;9.20;99.90;;;;;;5072747;28;20033;-67
2022/05/22 01:09:38;;;;;;;10.98;4.68;;;9.20;99.90;;;;;;5070896;28;20380;-67
2022/05/22 01:12:12;;;;;;;8.30;4.05;;;9.00;99.90;;;;;;5069426;28;20032;-67
2022/05/22 01:14:39;;;;;;;8.30;4.53;;;9.10;99.90;;;;;;5070107;28;20111;-67
2022/05/22 01:17:09;;;;;;;10.77;4.35;;;9.10;99.90;;;;;;5069422;28;20048;-67
2022/05/22 01:19:35;;;;;;;10.52;4.30;;;9.00;99.90;;;;;;5068477;28;20185;-67
2022/05/22 01:22:05;;;;;;;9.43;4.80;;;9.10;99.90;;;;;;5071484;28;20048;-67
2022/05/22 01:24:31;;;;;;;8.02;4.32;;;9.00;99.90;;;;;;5068454;28;20040;-67
2022/05/22 01:27:02;;;;;;;8.55;4.50;;;9.00;99.90;;;;;;5069566;28;20047;-67
2022/05/22 01:29:28;;;;;;;9.15;3.90;;;8.90;99.90;;;;;;5068183;28;20079;-67
2022/05/22 01:31:54;;;;;;;13.30;5.97;;;8.90;99.90;;;;;;5069505;28;20102;-67
2022/05/22 01:34:20;;;;;;;10.43;4.60;;;8.90;99.90;;;;;;5070199;28;20495;-67
2022/05/22 01:36:46;;;;;;;10.48;4.60;;;8.80;99.90;;;;;;5068708;28;20064;-67
2022/05/22 01:39:12;;;;;;;7.95;5.40;;;8.80;99.90;;;;;;5067385;28;20496;-67
2022/05/22 01:41:38;;;;;;;10.68;5.28;;;8.70;99.90;;;;;;5071175;28;20515;-67
2022/05/22 01:44:04;;;;;;;12.48;5.60;;;8.70;99.90;;;;;;5071101;28;20049;-67
2022/05/22 01:46:31;;;;;;;12.55;5.53;;;8.80;99.90;;;;;;5070413;28;20064;-67
2022/05/22 01:48:57;;;;;;;8.40;4.93;;;8.80;99.90;;;;;;5069075;28;20044;-67
2022/05/22 01:51:25;;;;;;;13.60;4.50;;;8.70;99.90;;;;;;5070066;28;20032;-67
2022/05/22 01:53:50;;;;;;;14.60;6.25;;;8.70;99.90;;;;;;5064681;28;20127;-67
2022/05/22 01:56:16;;;;;;;10.20;4.75;;;8.70;99.90;;;;;;5070232;28;20158;-67
2022/05/22 01:58:42;;;;;;;10.48;5.15;;;8.70;99.90;;;;;;5067097;28;20596;-67
2022/05/22 02:01:09;;;;;;;11.85;5.07;;;8.60;99.90;;;;;;5071525;28;20502;-67
2022/05/22 02:03:34;;;;;;;9.23;4.88;;;8.60;99.90;;;;;;5070133;28;20079;-67
2022/05/22 02:06:00;;;;;;;10.65;4.72;;;8.60;99.90;;;;;;5070007;28;20090;-67
2022/05/22 02:08:26;;;;;;;9.80;4.80;;;8.50;99.90;;;;;;5068963;28;20093;-67
2022/05/22 02:10:59;;;;;;;7.53;4.47;;;8.50;99.90;;;;;;5068821;28;20161;-67
2022/05/22 02:13:29;;;;;;;9.55;4.45;;;8.50;99.90;;;;;;5067957;28;20052;-67
2022/05/22 02:15:55;;;;;;;14.15;5.60;;;8.50;99.90;;;;;;5069591;28;20078;-67
2022/05/22 02:18:21;;;;;;;13.05;6.28;;;8.50;99.90;;;;;;5070247;28;20117;-67
2022/05/22 02:20:48;;;;;;;10.90;5.97;;;8.40;99.90;;;;;;5069785;28;20033;-67
2022/05/22 02:23:15;;;;;;;11.32;4.75;;;8.50;99.90;;;;;;5066727;28;20044;-67
2022/05/22 02:25:47;;;;;;;8.45;5.03;;;8.40;99.90;;;;;;5069149;28;20028;-67
2022/05/22 02:28:14;;;;;;;11.48;5.28;;;8.40;99.90;;;;;;5068733;28;20777;-67
2022/05/22 02:30:43;;;;;;;9.95;5.97;;;8.40;99.90;;;;;;5070401;28;20370;-67
2022/05/22 02:33:10;;;;;;;11.85;6.03;;;8.40;99.90;;;;;;5066397;28;20115;-67
2022/05/22 02:35:37;;;;;;;15.18;7.13;;;8.40;99.90;;;;;;5070535;28;20040;-67
2022/05/22 02:38:03;;;;;;;8.65;4.78;;;8.40;99.90;;;;;;5066879;28;20056;-67
2022/05/22 02:40:32;;;;;;;12.52;5.15;;;8.30;99.90;;;;;;5067046;28;21455;-67
2022/05/22 02:42:58;;;;;;;8.50;5.15;;;8.40;99.90;;;;;;5069622;28;20044;-67
2022/05/22 02:45:28;;;;;;;7.32;4.72;;;8.30;99.90;;;;;;5068253;28;20036;-67
2022/05/22 02:47:54;;;;;;;8.73;5.10;;;8.30;99.90;;;;;;5069364;28;20048;-67
2022/05/22 02:50:23;;;;;;;9.23;4.60;;;8.30;99.90;;;;;;5069713;28;20036;-67
2022/05/22 02:52:50;;;;;;;9.27;5.00;;;8.30;99.90;;;;;;5066848;28;20059;-67
2022/05/22 02:55:17;;;;;;;12.02;4.90;;;8.30;99.90;;;;;;5066470;28;20043;-67
2022/05/22 02:57:43;;;;;;;11.02;4.60;;;8.30;99.90;;;;;;5066225;28;20167;-67
2022/05/22 03:00:20;;;;;;;6.43;4.55;;;8.30;99.90;;;;;;5068333;28;20375;-67
2022/05/22 03:02:45;;;;;;;14.88;4.85;;;8.20;99.90;;;;;;5067296;28;20048;-67
2022/05/22 03:05:12;;;;;;;13.13;5.63;;;8.20;99.90;;;;;;5069915;28;20502;-67
2022/05/22 03:07:38;;;;;;;12.60;5.03;;;8.20;99.90;;;;;;5069824;28;20570;-67
2022/05/22 03:10:06;;;;;;;14.25;5.28;;;8.20;99.90;;;;;;5066624;28;20028;-67
2022/05/22 03:12:33;;;;;;;8.63;5.07;;;8.20;99.90;;;;;;5060761;28;20221;-67
2022/05/22 03:14:59;;;;;;;13.27;5.30;;;8.10;99.90;;;;;;5067455;28;20709;-67
2022/05/22 03:17:26;;;;;;;8.98;4.97;;;8.20;99.90;;;;;;5067663;28;20122;-67
2022/05/22 03:19:52;;;;;;;10.05;5.18;;;8.10;99.90;;;;;;5069512;28;20041;-67
2022/05/22 03:22:18;;;;;;;12.52;5.90;;;8.10;99.90;;;;;;5066123;28;20047;-67
2022/05/22 03:24:44;;;;;;;9.82;5.35;;;8.10;99.90;;;;;;5067147;28;20033;-67
2022/05/22 03:27:12;;;;;;;11.70;5.88;;;8.10;99.90;;;;;;5064481;28;20036;-67
2022/05/22 03:29:39;;;;;;;13.15;6.18;;;8.20;99.90;;;;;;5067831;28;20032;-67
2022/05/22 03:32:05;;;;;;;12.75;6.30;;;8.20;99.90;;;;;;5065562;28;20395;-67
2022/05/22 03:34:31;;;;;;;15.77;6.25;;;8.10;99.90;;;;;;5067126;28;20040;-67
2022/05/22 03:36:58;;;;;;;9.18;5.85;;;8.10;99.90;;;;;;5066029;28;20078;-67
2022/05/22 03:39:24;;;;;;;13.82;6.30;;;8.10;99.90;;;;;;5064477;28;20408;-67
2022/05/22 03:41:50;;;;;;;15.65;6.30;;;8.10;99.90;;;;;;5064382;28;20394;-67
2022/05/22 03:44:17;;;;;;;17.65;6.32;;;8.20;99.90;;;;;;5067689;28;20044;-66
2022/05/22 03:46:44;;;;;;;10.68;5.57;;;8.20;99.90;;;;;;5066886;28;20403;-66
2022/05/22 03:49:10;;;;;;;10.25;5.18;;;8.20;99.90;;;;;;5063431;28;20045;-66
2022/05/22 03:51:36;;;;;;;11.18;5.13;;;8.20;99.90;;;;;;5066995;28;20097;-66
2022/05/22 03:54:02;;;;;;;9.70;5.18;;;8.20;99.90;;;;;;5064756;28;20040;-66
2022/05/22 03:56:28;;;;;;;15.85;6.00;;;8.20;99.90;;;;;;5063934;28;20032;-66
2022/05/22 03:58:54;;;;;;;10.50;5.53;;;8.20;99.90;;;;;;5063265;28;20425;-66
2022/05/22 04:01:20;;;;;;;10.82;5.95;;;8.20;99.90;;;;;;5064399;28;20024;-66
2022/05/22 04:03:45;;;;;;;13.68;5.95;;;8.10;99.90;;;;;;5067545;28;20515;-66
2022/05/22 04:06:12;;;;;;;8.90;6.38;;;8.10;99.90;;;;;;5066393;28;20487;-66
2022/05/22 04:08:38;;;;;;;11.20;5.75;;;8.20;99.90;;;;;;5065685;28;20420;-66
2022/05/22 04:11:07;;;;;;;10.20;6.78;;;8.10;99.90;;;;;;5066721;28;20037;-67
2022/05/22 04:13:33;;;;;;;11.95;7.10;;;8.20;99.90;;;;;;5063051;28;20067;-67
2022/05/22 04:15:59;;;;;;;10.35;6.68;;;8.20;99.90;;;;;;5063667;28;20049;-67
2022/05/22 04:18:25;;;;;;;14.25;6.93;;;8.20;99.90;;;;;;5062269;28;20467;-67
2022/05/22 04:20:51;;;;;;;10.15;6.28;;;8.20;99.90;;;;;;5066671;28;20036;-67
2022/05/22 04:26:01;;;;;;;13.30;6.78;;;8.30;99.90;;;;;;5066057;28;20070;-67
2022/05/22 04:28:31;;;;;;;13.55;6.60;;;8.40;99.90;;;;;;5065619;28;20048;-67
2022/05/22 04:30:57;;;;;;;9.90;6.03;;;8.40;99.90;;;;;;5063380;28;20048;-67
2022/05/22 04:33:24;;;;;;;10.23;5.78;;;8.40;99.90;;;;;;5063951;28;21141;-67
2022/05/22 04:35:50;;;;;;;6.82;5.10;;;8.50;99.90;;;;;;5062869;28;20033;-67
2022/05/22 04:38:16;;;;;;;11.88;6.88;;;8.60;99.90;;;;;;5063556;28;20062;-67
2022/05/22 04:40:42;;;;;;;7.60;6.25;;;8.60;99.90;;;;;;5066659;28;20396;-67
2022/05/22 04:43:12;;;;;;;6.88;5.60;;;8.60;99.90;;;;;;5063795;28;20047;-67
2022/05/22 04:45:40;;;;;;;10.05;6.30;;;8.70;99.90;;;;;;5064034;28;20438;-67
2022/05/22 04:48:07;;;;;;;11.07;7.15;;;8.80;99.90;;;;;;5066270;28;20040;-67
2022/05/22 04:50:33;;;;;;;12.63;7.40;;;8.80;99.90;;;;;;5064393;28;20052;-67
2022/05/22 04:52:59;;;;;;;12.98;7.72;;;8.90;99.90;;;;;;5061955;28;20079;-67
2022/05/22 04:55:25;;;;;;;12.05;7.85;;;9.00;99.90;;;;;;5067723;28;20037;-67
2022/05/22 04:57:51;;;;;;;11.52;8.50;;;9.20;99.90;;;;;;5063238;28;20062;-67
2022/05/22 05:00:17;;;;;;;11.77;8.50;;;9.30;99.90;;;;;;5065313;28;20090;-67
2022/05/22 05:02:43;;;;;;;11.40;8.38;;;9.60;99.90;;;;;;5067569;28;20048;-67
2022/05/22 05:05:11;;;;;;;11.40;8.63;;;10.00;99.90;;;;;;5061072;28;20052;-67
2022/05/22 05:07:38;;;;;;;11.98;7.70;;;10.40;99.90;;;;;;5065559;28;20052;-67
2022/05/22 05:10:05;;;;;;;14.63;8.48;;;10.70;99.90;;;;;;5064148;28;20032;-67
2022/05/22 05:12:33;;;;;;;11.00;7.93;;;11.00;99.90;;;;;;5063072;28;20395;-67
2022/05/22 05:14:58;;;;;;;12.73;8.98;;;11.30;99.90;;;;;;5062490;28;20036;-67
2022/05/22 05:17:24;;;;;;;11.43;8.25;;;11.60;99.90;;;;;;5064559;28;20400;-67
2022/05/22 05:19:49;;;;;;;14.73;8.10;;;12.00;99.90;;;;;;5064737;28;20466;-67
2022/05/22 05:22:15;;;;;;;13.93;8.43;;;12.00;99.90;;;;;;5066168;28;20581;-67
2022/05/22 05:24:41;;;;;;;13.50;7.90;;;12.00;99.90;;;;;;5067864;28;20024;-67
2022/05/22 05:27:07;;;;;;;14.73;8.73;;;12.00;99.90;;;;;;5066060;28;20087;-67
2022/05/22 05:29:32;;;;;;;18.80;8.27;;;12.00;99.90;;;;;;5067654;28;20419;-67
2022/05/22 05:31:58;;;;;;;13.90;8.27;;;12.00;99.90;;;;;;5068521;28;20032;-67
2022/05/22 05:34:24;;;;;;;17.65;7.38;;;12.00;99.90;;;;;;5065509;28;20032;-67
2022/05/22 05:36:49;;;;;;;13.43;7.75;;;12.10;99.90;;;;;;5066259;28;20032;-67
2022/05/22 05:39:16;;;;;;;14.75;7.00;;;12.10;99.90;;;;;;5067921;28;20053;-67
2022/05/22 05:41:42;;;;;;;13.95;6.38;;;12.30;99.90;;;;;;5061030;28;20048;-67
2022/05/22 05:44:07;;;;;;;14.80;5.95;;;12.30;99.90;;;;;;5065056;28;20047;-67
2022/05/22 05:46:37;;;;;;;14.73;6.82;;;12.40;99.90;;;;;;5066714;28;20045;-67
2022/05/22 05:49:05;;;;;;;11.77;5.55;;;12.60;99.90;;;;;;5068921;28;20067;-67
2022/05/22 05:51:31;;;;;;;14.10;6.45;;;12.70;99.90;;;;;;5061579;28;20378;-67
2022/05/22 05:53:57;;;;;;;13.20;5.70;;;12.80;99.90;;;;;;5063093;28;20048;-67
2022/05/22 05:56:23;;;;;;;15.57;5.70;;;12.90;99.90;;;;;;5065367;28;20838;-67
2022/05/22 05:58:49;;;;;;;14.63;6.00;;;13.10;99.90;;;;;;5068378;28;20046;-67
2022/05/22 06:01:17;;;;;;;10.68;5.28;;;13.20;99.90;;;;;;5071930;28;20037;-67
2022/05/22 06:03:44;;;;;;;16.20;5.60;;;13.30;99.90;;;;;;5066785;28;20125;-67
2022/05/22 06:06:11;;;;;;;14.48;5.57;;;13.40;99.90;;;;;;5067717;28;20055;-67
2022/05/22 06:08:37;;;;;;;14.50;5.70;;;13.50;99.90;;;;;;5071669;28;20385;-67
2022/05/22 06:11:03;;;;;;;17.80;5.38;;;13.60;99.90;;;;;;5072593;28;20040;-67
2022/05/22 06:13:29;;;;;;;15.43;4.75;;;13.70;99.90;;;;;;5066210;28;20041;-67
2022/05/22 06:15:55;;;;;;;9.70;3.97;;;13.80;99.90;;;;;;5070856;28;20401;-67
2022/05/22 06:18:21;;;;;;;10.52;4.28;;;13.90;99.90;;;;;;5067541;28;20040;-67
2022/05/22 06:20:47;;;;;;;13.00;4.82;;;14.00;99.90;;;;;;5071304;28;20037;-67
2022/05/22 06:23:13;;;;;;;12.88;4.78;;;14.10;99.90;;;;;;5070123;28;20407;-67
2022/05/22 06:25:44;;;;;;;14.35;4.72;;;14.20;99.90;;;;;;5068900;28;20506;-67
2022/05/22 06:28:14;;;;;;;12.98;4.82;;;14.30;99.90;;;;;;5065755;28;20084;-67
2022/05/22 06:30:40;;;;;;;9.18;3.88;;;14.40;99.90;;;;;;5067766;28;20123;-68
2022/05/22 06:33:08;;;;;;;13.82;3.70;;;14.50;99.90;;;;;;5068768;28;20464;-67
2022/05/22 06:35:34;;;;;;;12.80;4.13;;;14.50;99.90;;;;;;5068985;28;20086;-67
2022/05/22 06:38:01;;;;;;;12.13;3.38;;;14.60;99.90;;;;;;5066107;28;20060;-67
2022/05/22 06:40:26;;;;;;;13.23;4.35;;;14.70;99.90;;;;;;5064819;28;20052;-68
2022/05/22 06:42:52;;;;;;;12.57;4.22;;;14.80;99.90;;;;;;5066131;28;20062;-68
2022/05/22 06:45:22;;;;;;;10.88;4.00;;;14.80;99.90;;;;;;5067423;28;20403;-68
2022/05/22 06:47:49;;;;;;;15.30;4.20;;;14.90;99.90;;;;;;5048149;28;20056;-68
2022/05/22 06:50:21;;;;;;;11.73;4.32;;;15.00;99.90;;;;;;5060162;28;20116;-68
2022/05/22 06:52:47;;;;;;;11.30;4.53;;;15.10;99.90;;;;;;5067481;28;20052;-68
2022/05/22 06:55:13;;;;;;;9.77;4.72;;;15.10;99.90;;;;;;5068040;28;20456;-68
2022/05/22 06:57:40;;;;;;;13.15;4.72;;;15.20;99.90;;;;;;5069799;28;20045;-68
2022/05/22 07:00:10;;;;;;;10.02;3.72;;;15.40;99.90;;;;;;5068412;28;20326;-68
2022/05/22 07:02:37;;;;;;;10.10;3.88;;;15.50;99.90;;;;;;5068576;28;20049;-68
2022/05/22 07:05:03;;;;;;;11.93;3.67;;;15.70;99.90;;;;;;5065555;28;20127;-68
2022/05/22 07:07:29;;;;;;;12.18;3.65;;;15.80;99.90;;;;;;5068396;28;20048;-68
2022/05/22 07:09:55;;;;;;;12.07;3.58;;;16.00;99.90;;;;;;5067298;28;20055;-68
2022/05/22 07:12:21;;;;;;;10.00;3.03;;;16.10;99.90;;;;;;5069589;28;20040;-68
2022/05/22 07:14:51;;;;;;;10.50;3.22;;;16.30;99.90;;;;;;5065306;28;20507;-68
2022/05/22 07:17:21;;;;;;;8.80;3.42;;;16.40;99.90;;;;;;5071457;28;20040;-66
2022/05/22 07:19:47;;;;;;;9.30;3.00;;;16.50;99.90;;;;;;5067118;28;20055;-66
2022/05/22 07:22:13;;;;;;;12.77;3.58;;;16.60;99.90;;;;;;5068051;28;20037;-66
2022/05/22 07:24:39;;;;;;;8.55;3.00;;;16.70;99.90;;;;;;5064673;28;20052;-66
2022/05/22 07:27:05;;;;;;;10.25;2.80;;;16.90;99.90;;;;;;5068699;28;20136;-66
2022/05/22 07:29:31;;;;;;;9.50;3.30;;;17.10;99.90;;;;;;5065777;28;20113;-66
2022/05/22 07:31:57;;;;;;;10.43;3.20;;;17.10;99.90;;;;;;5063721;28;20048;-66
2022/05/22 07:34:26;;;;;;;8.25;2.50;;;17.30;99.90;;;;;;5068781;28;20119;-66
2022/05/22 07:37:01;;;;;;;8.32;2.25;;;17.50;99.90;;;;;;5066944;28;20446;-66
2022/05/22 07:39:27;;;;;;;10.15;2.75;;;17.70;99.90;;;;;;5065885;28;20063;-66
2022/05/22 07:41:54;;;;;;;9.45;2.80;;;18.00;99.90;;;;;;5058966;28;20428;-66
2022/05/22 07:44:20;;;;;;;10.07;2.40;;;18.30;99.90;;;;;;5069784;28;20384;-66
2022/05/22 07:46:46;;;;;;;10.70;2.25;;;18.40;99.90;;;;;;5066886;28;20051;-67
2022/05/22 07:50:16;;;;;;;10.18;3.03;;;18.60;99.90;;;;;;5068598;28;20384;-66
2022/05/22 07:52:06;;;;;;;8.85;2.53;;;18.60;99.90;;;;;;5062246;28;20045;-67
2022/05/22 07:54:37;;;;;;;7.80;1.67;;;18.80;99.90;;;;;;5068681;28;20044;-66
2022/05/22 07:57:03;;;;;;;7.35;1.88;;;19.10;99.90;;;;;;5062023;28;20048;-66
2022/05/22 07:59:32;;;;;;;10.23;2.45;;;19.10;99.90;;;;;;5068897;28;20551;-66
2022/05/22 08:01:58;;;;;;;7.95;2.13;;;19.10;99.90;;;;;;5063525;28;20044;-66
2022/05/22 08:04:24;;;;;;;11.65;2.22;;;19.10;99.90;;;;;;5062565;28;20555;-66
2022/05/22 08:06:50;;;;;;;7.93;2.45;;;19.10;99.90;;;;;;5061380;28;20115;-66
2022/05/22 08:09:16;;;;;;;7.72;2.00;;;19.10;99.90;;;;;;5067117;28;20055;-67
2022/05/22 08:11:42;;;;;;;11.65;2.58;;;19.10;99.90;;;;;;5065938;28;20085;-67
2022/05/22 08:14:07;;;;;;;9.57;2.30;;;19.40;99.90;;;;;;5063659;28;20052;-69
2022/05/22 08:16:33;;;;;;;8.55;1.90;;;19.80;99.90;;;;;;5066335;28;20032;-69
2022/05/22 08:18:59;;;;;;;8.55;2.13;;;20.10;99.60;;;;;;5069831;28;20028;-67
2022/05/22 08:21:24;;;;;;;7.43;1.98;;;20.60;98.60;;;;;;5064094;28;20037;-67
2022/05/22 08:23:50;;;;;;;7.57;1.90;;;21.10;96.40;;;;;;5068813;28;20025;-67
2022/05/22 08:26:16;;;;;;;8.38;2.03;;;21.50;96.20;;;;;;5063565;28;20126;-67
2022/05/22 08:28:41;;;;;;;6.82;1.80;;;22.00;94.40;;;;;;5069373;28;20028;-67
2022/05/22 08:31:07;;;;;;;7.03;1.35;;;22.40;93.40;;;;;;5065308;28;20036;-67
2022/05/22 08:33:34;;;;;;;6.85;1.58;;;22.60;92.20;;;;;;5066840;28;20038;-67
2022/05/22 08:36:00;;;;;;;7.63;1.73;;;22.20;86.30;;;;;;5066566;28;20090;-67
2022/05/22 08:38:27;;;;;;;6.82;1.70;;;22.10;86.40;;;;;;5066784;28;20048;-67
2022/05/22 08:41:04;;;;;;;7.68;1.60;;;22.40;86.20;;;;;;5067969;28;20044;-67
2022/05/22 08:43:58;;;;;;;8.77;1.77;;;22.40;81.30;;;;;;5066453;28;20066;-67
2022/05/22 08:46:35;;;;;;;11.27;2.17;;;22.40;82.80;;;;;;5057424;28;20041;-67
2022/05/22 08:49:21;;;;;;;6.55;1.58;;;22.20;79.30;;;;;;5066230;28;20040;-67
2022/05/22 08:51:51;;;;;;;9.68;1.70;;;22.00;75.50;;;;;;5066043;28;20476;-67
2022/05/22 08:54:29;;;;;;;6.70;1.50;;;21.40;76.60;;;;;;5067814;28;20036;-67
2022/05/22 08:59:46;;;;;;;8.80;1.80;;;20.70;80.30;;;;;;5062758;28;20044;-65
2022/05/22 09:02:23;;;;;;;7.63;1.77;;;20.70;80.10;;;;;;5063319;28;20033;-65
2022/05/22 09:05:04;;;;;;;7.63;1.70;;;20.50;81.00;;;;;;5057413;28;20123;-65
2022/05/22 09:07:48;;;;;;;9.02;1.92;;;20.30;81.60;;;;;;5065210;28;20087;-65
2022/05/22 09:10:20;;;;;;;5.22;1.25;;;20.10;81.60;;;;;;5065078;28;20067;-66
2022/05/22 09:13:26;;;;;;;5.60;1.45;;;20.10;82.20;;;;;;5060888;28;20232;-66
2022/05/22 09:16:28;;;;;;;8.27;1.40;;;20.30;77.40;;;;;;5065605;28;20481;-65
2022/05/22 09:19:17;;;;;;;7.10;1.80;;;20.10;79.10;;;;;;5031107;28;20476;-66
2022/05/22 09:21:49;;;;;;;8.48;1.63;;;20.00;83.60;;;;;;5069042;28;20037;-66
2022/05/22 09:24:37;;;;;;;6.75;1.20;;;20.50;82.30;;;;;;5070483;28;20465;-67
2022/05/22 09:27:09;;;;;;;5.65;1.35;;;21.00;76.40;;;;;;5061110;28;20048;-66
2022/05/22 09:29:43;;;;;;;7.28;1.67;;;21.40;80.40;;;;;;5069883;28;20029;-68
2022/05/22 09:32:28;;;;;;;7.05;1.73;;;21.90;75.80;;;;;;5070219;28;20047;-66
2022/05/22 09:35:15;;;;;;;7.22;1.48;;;22.40;70.30;;;;;;5071992;28;20029;-66
2022/05/22 09:37:53;;;;;;;5.35;1.30;;;22.70;65.10;;;;;;5070886;28;20106;-66
2022/05/22 09:40:30;;;;;;;7.65;1.73;;;22.90;69.60;;;;;;5069215;28;20049;-66
2022/05/22 09:43:26;;;;;;;6.60;1.35;;;23.20;68.20;;;;;;5071091;28;20210;-66
2022/05/22 09:46:16;;;;;;;5.95;1.55;;;23.30;64.90;;;;;;5071397;28;20412;-66
2022/05/22 09:48:52;;;;;;;6.13;1.40;;;23.00;67.80;;;;;;5071566;28;20451;-66
2022/05/22 09:51:49;;;;;;;6.53;1.17;;;22.80;67.90;;;;;;5070610;28;20041;-65
2022/05/22 09:54:21;;;;;;;6.60;1.58;;;22.20;65.00;;;;;;5069693;28;20120;-66
2022/05/22 09:56:53;;;;;;;7.72;1.88;;;21.80;69.40;;;;;;5070323;28;20034;-66
2022/05/22 09:59:58;;;;;;;7.70;1.98;;;21.70;68.20;;;;;;5071191;28;20036;-66
2022/05/22 10:02:46;;;;;;;6.95;2.35;;;21.80;70.10;;;;;;5067503;28;20537;-66
2022/05/22 10:05:51;;;;;;;10.45;1.73;;;22.20;69.10;;;;;;5057362;28;20044;-66
2022/05/22 10:08:22;;;;;;;;;;;22.80;67.90;;;;;;5069771;28;20040;-67
2022/05/22 10:11:21;;;;;;;8.18;1.75;;;23.10;67.60;;;;;;5069841;28;19971;-67
2022/05/22 10:14:19;;;;;;;7.00;1.52;;;23.70;69.20;;;;;;5068885;28;20037;-67
2022/05/22 10:17:09;;;;;;;5.38;1.05;;;24.10;63.60;;;;;;5068403;28;20060;-66
2022/05/22 10:19:44;;;;;;;4.22;0.98;;;24.10;63.60;;;;;;5071367;28;20400;-66
2022/05/22 10:22:27;;;;;;;3.95;1.00;;;24.20;66.00;;;;;;5065341;28;20127;-66
2022/05/22 10:25:24;;;;;;;5.70;1.40;;;24.20;61.10;;;;;;5069410;28;20072;-66
2022/05/22 10:27:56;;;;;;;6.22;1.33;;;23.50;58.50;;;;;;5067868;28;20480;-65
2022/05/22 10:30:30;;;;;;;6.15;1.30;;;23.30;62.00;;;;;;5071356;28;20051;-65
2022/05/22 10:33:04;;;;;;;3.50;0.95;;;23.40;63.90;;;;;;5065420;28;20039;-65
2022/05/22 10:35:46;;;;;;;6.75;1.38;;;23.60;60.90;;;;;;5068744;28;20032;-65
2022/05/22 10:38:15;;;;;;;4.72;1.30;;;23.80;59.10;;;;;;5070214;28;20052;-65
2022/05/22 10:43:37;;;;;;;4.68;1.02;;;23.90;62.30;;;;;;5067653;28;20039;-66
2022/05/22 10:46:04;;;;;;;6.90;1.50;;;23.80;59.60;;;;;;5071404;28;20060;-66
2022/05/22 10:48:31;;;;;;;5.55;1.17;;;23.40;58.40;;;;;;5064122;28;20032;-66
2022/05/22 10:51:04;;;;;;;5.25;1.15;;;22.90;58.20;;;;;;5070791;28;20037;-65
2022/05/22 10:53:32;;;;;;;5.82;1.33;;;22.80;60.80;;;;;;5066567;28;20036;-66
2022/05/22 10:56:21;;;;;;;6.00;1.55;;;23.10;61.70;;;;;;5070823;28;20036;-65
2022/05/22 10:58:57;;;;;;;7.03;1.55;;;23.50;61.60;;;;;;5069526;28;20480;-66
2022/05/22 11:01:28;;;;;;;5.85;1.05;;;23.80;60.10;;;;;;5070005;28;20103;-65
2022/05/22 11:04:01;;;;;;;5.38;1.50;;;23.60;59.20;;;;;;5067064;28;20040;-65
2022/05/22 11:06:27;;;;;;;7.18;1.45;;;23.30;60.90;;;;;;5069800;28;20086;-65
2022/05/22 11:08:54;;;;;;;6.72;1.38;;;23.30;63.20;;;;;;5068262;28;20613;-65
2022/05/22 11:11:49;;;;;;;6.05;1.23;;;23.80;63.50;;;;;;5069244;28;20056;-65
2022/05/22 11:14:20;;;;;;;3.95;1.00;;;24.30;58.40;;;;;;5065037;28;20523;-65
2022/05/22 11:16:47;;;;;;;4.68;1.20;;;24.20;55.10;;;;;;5068955;28;20062;-65
2022/05/22 11:19:21;;;;;;;4.72;1.33;;;24.20;56.10;;;;;;5066597;28;20062;-66
2022/05/22 11:22:05;;;;;;;4.80;1.10;;;24.60;57.00;;;;;;5068407;28;20087;-65
2022/05/22 11:25:01;;;;;;;8.25;1.20;;;25.00;56.50;;;;;;5062639;28;20127;-69
2022/05/22 11:27:32;;;;;;;4.80;0.98;;;25.40;55.40;;;;;;5067923;28;20029;-68
2022/05/22 11:30:05;;;;;;;5.15;1.50;;;25.40;54.10;;;;;;5070127;28;20066;-69
2022/05/22 11:32:55;;;;;;;4.55;1.05;;;24.60;52.50;;;;;;5066568;28;20064;-70
2022/05/22 11:35:42;;;;;;;4.85;1.13;;;24.10;55.70;;;;;;5066135;28;20068;-70
2022/05/22 11:38:29;;;;;;;6.07;1.17;;;24.40;57.40;;;;;;5049663;28;20044;-71
2022/05/22 11:41:18;;;;;;;6.88;1.40;;;24.80;54.50;;;;;;5067371;28;20041;-73
2022/05/22 11:44:01;;;;;;;5.95;0.98;;;24.90;53.60;;;;;;5060570;28;20087;-71
2022/05/22 11:46:54;;;;;;;4.43;0.80;;;24.90;54.60;;;;;;5069608;28;20472;-69
2022/05/22 11:49:39;;;;;;;4.57;1.08;;;24.90;55.10;;;;;;5066215;28;20032;-70
2022/05/22 11:55:18;;;;;;;4.65;0.90;;;24.80;53.40;;;;;;5066830;28;20067;-67
2022/05/22 11:58:04;;;;;;;5.63;1.70;;;24.90;54.90;;;;;;5066963;28;20044;-67
2022/05/22 12:00:38;;;;;;;6.95;1.40;;;24.90;53.70;;;;;;5069251;28;20548;-66
2022/05/22 12:03:25;;;;;;;6.20;1.42;;;24.40;51.90;;;;;;5065363;28;20086;-67
2022/05/22 12:06:06;;;;;;;5.93;0.90;;;24.10;53.30;;;;;;5062860;28;20040;-67
2022/05/22 12:08:37;;;;;;;4.45;1.02;;;23.80;54.40;;;;;;5068405;28;20036;-67
2022/05/22 12:11:15;;;;;;;4.53;1.13;;;23.40;53.80;;;;;;5067317;28;20048;-67
2022/05/22 12:14:22;;;;;;;6.03;1.05;;;23.20;56.50;;;;;;5068626;28;20039;-67
2022/05/22 12:17:01;;;;;;;4.13;1.00;;;23.40;55.40;;;;;;5061156;28;20041;-67
2022/05/22 12:19:39;;;;;;;3.20;0.75;;;23.60;55.70;;;;;;5067657;28;21057;-67
2022/05/22 12:22:21;;;;;;;6.10;1.20;;;23.40;56.00;;;;;;5066815;28;20036;-67
2022/05/22 12:24:55;;;;;;;5.65;1.25;;;23.00;56.20;;;;;;5065261;28;20120;-67
2022/05/22 12:27:25;;;;;;;4.88;0.90;;;22.80;57.50;;;;;;5064601;28;20102;-66
2022/05/22 12:29:59;;;;;;;3.28;0.80;;;22.50;56.20;;;;;;5066921;28;20124;-66
2022/05/22 12:32:27;;;;;;;6.93;0.95;;;22.20;57.00;;;;;;5066921;28;20094;-66
2022/05/22 12:34:55;;;;;;;3.75;0.90;;;22.00;57.20;;;;;;5067996;28;20127;-66
2022/05/22 12:37:50;;;;;;;4.65;0.75;;;22.00;57.60;;;;;;5063750;28;20395;-66
2022/05/22 12:40:40;;;;;;;5.43;1.00;;;21.90;57.90;;;;;;5064052;28;20060;-67
2022/05/22 12:43:09;;;;;;;4.53;1.20;;;21.80;57.40;;;;;;5067985;28;20446;-67
2022/05/22 12:45:36;;;;;;;5.18;1.17;;;21.60;59.00;;;;;;5065537;28;20433;-67
2022/05/22 12:48:25;;;;;;;3.30;1.00;;;21.60;59.90;;;;;;5067819;28;20040;-66
2022/05/22 12:51:05;;;;;;;6.03;1.00;;;21.60;59.40;;;;;;5056822;28;20364;-66
2022/05/22 12:53:32;;;;;;;5.10;0.90;;;21.70;60.10;;;;;;5063341;28;20094;-66
2022/05/22 12:56:38;;;;;;;3.33;1.05;;;21.70;59.80;;;;;;5065431;28;20033;-67
2022/05/22 12:59:33;;;;;;;4.20;1.10;;;21.70;61.00;;;;;;5054036;28;20131;-66
2022/05/22 13:02:02;;;;;;;5.65;1.20;;;21.70;59.50;;;;;;5063731;28;20097;-66
2022/05/22 13:04:39;;;;;;;9.13;0.90;;;21.70;60.70;;;;;;5050733;28;20123;-66
2022/05/22 13:07:11;;;;;;;3.88;0.80;;;21.70;60.70;;;;;;5064927;28;20063;-66
2022/05/22 13:09:42;;;;;;;7.25;1.30;;;21.70;58.80;;;;;;5071740;28;20388;-66
2022/05/22 13:12:08;;;;;;;5.57;1.10;;;21.60;60.00;;;;;;5067725;28;20294;-66
2022/05/22 13:14:54;;;;;;;6.18;1.23;;;21.70;58.90;;;;;;5068493;28;20045;-66
2022/05/22 13:17:51;;;;;;;4.75;0.98;;;21.70;60.50;;;;;;5067899;28;20066;-66